Time;durP1;ratioP1;P1;durP2;ratioP2;P2;SDS_P1;SDS_P2;PMS_P1;PMS_P2;Temp;Humidity;BMP_temperature;BMP_pressure;BME280_temperature;BME280_humidity;BME280_pressure;Samples;Min_cycle;Max_cycle;Signal;HPM_P1;HPM_P2
2021/07/12 00:00:23;;;;;;;23.95;21.20;;;;;;;22.60;100.00;100677.89;1716570;82;21096;-84
2021/07/12 00:02:50;;;;;;;23.80;20.15;;;;;;;22.52;100.00;100680.20;1698980;82;21432;-84
2021/07/12 00:05:18;;;;;;;23.83;19.75;;;;;;;22.43;100.00;100678.20;1691293;83;21575;-83
2021/07/12 00:07:47;;;;;;;22.95;20.08;;;;;;;22.39;100.00;100682.24;1703508;82;21073;-83
2021/07/12 00:10:20;;;;;;;22.98;20.50;;;;;;;22.32;100.00;100676.84;1728547;82;21049;-84
2021/07/12 00:12:50;;;;;;;23.30;19.02;;;;;;;22.26;100.00;100678.94;1719105;82;20982;-83
2021/07/12 00:15:22;;;;;;;25.85;19.67;;;;;;;22.21;100.00;100674.72;1716447;82;21093;-84
2021/07/12 00:17:51;;;;;;;21.10;18.15;;;;;;;22.16;100.00;100679.76;1722938;82;21047;-83
2021/07/12 00:20:19;;;;;;;25.82;18.80;;;;;;;22.10;100.00;100677.87;1711061;83;21010;-83
2021/07/12 00:22:50;;;;;;;21.68;18.82;;;;;;;22.09;100.00;100681.05;1709795;82;21166;-83
2021/07/12 00:25:21;;;;;;;28.23;19.63;;;;;;;22.10;100.00;100681.85;1714169;83;20939;-84
2021/07/12 00:27:48;;;;;;;22.10;19.82;;;;;;;22.12;100.00;100679.84;1687675;83;21188;-83
2021/07/12 00:30:21;;;;;;;21.05;18.85;;;;;;;22.12;100.00;100683.30;1715289;82;21038;-84
2021/07/12 00:32:49;;;;;;;;;;;;;;;22.12;100.00;100686.47;1729434;82;21101;-84
2021/07/12 00:35:18;;;;;;;20.70;17.90;;;;;;;22.15;100.00;100696.70;1715480;82;20850;-83
2021/07/12 05:35:15;;;;;;;39.13;33.98;;;;;;;25.54;100.00;100704.63;1622894;88;21091;-88
2021/07/12 05:37:41;;;;;;;35.92;32.35;;;;;;;25.66;100.00;100700.77;1606739;86;21319;-86
2021/07/12 05:40:09;;;;;;;36.35;32.90;;;;;;;25.74;100.00;100708.52;1592668;87;21070;-85
2021/07/12 05:42:37;;;;;;;35.48;32.13;;;;;;;25.83;100.00;100707.24;1598689;86;21683;-86
2021/07/12 05:45:05;;;;;;;35.33;32.13;;;;;;;25.91;100.00;100704.02;1590790;87;21526;-87
2021/07/12 05:47:33;;;;;;;35.55;31.77;;;;;;;25.99;100.00;100703.75;1600004;88;21061;-89
2021/07/12 05:50:00;;;;;;;35.10;31.52;;;;;;;26.10;100.00;100708.41;1603212;86;21114;-92
2021/07/12 05:52:31;;;;;;;38.80;34.73;;;;;;;26.19;100.00;100706.81;1597550;87;21090;-83
2021/07/12 05:54:56;;;;;;;36.17;32.53;;;;;;;26.26;100.00;100705.73;1601885;88;21100;-86
2021/07/12 05:57:23;;;;;;;40.58;33.90;;;;;;;26.35;100.00;100706.27;1624637;88;21071;-91
2021/07/12 05:59:50;;;;;;;36.00;32.17;;;;;;;26.42;100.00;100703.02;1597687;88;21035;-90
2021/07/12 06:02:17;;;;;;;35.70;31.87;;;;;;;26.50;100.00;100706.45;1627766;87;20988;-85
2021/07/12 06:04:45;;;;;;;36.10;30.60;;;;;;;26.59;100.00;100710.47;1597622;88;21111;-84
2021/07/12 06:07:13;;;;;;;37.20;33.23;;;;;;;26.67;100.00;100707.52;1633973;85;21553;-89
2021/07/12 06:09:39;;;;;;;35.13;31.52;;;;;;;26.76;100.00;100704.90;1660237;85;20963;-88
2021/07/12 06:12:07;;;;;;;33.38;29.87;;;;;;;26.87;100.00;100705.21;1643908;84;21106;-88
2021/07/12 06:14:34;;;;;;;37.30;32.23;;;;;;;26.99;100.00;100712.77;1680648;83;21067;-85
2021/07/12 06:17:02;;;;;;;34.85;31.17;;;;;;;27.08;100.00;100715.45;1669110;83;21917;-88
2021/07/12 06:19:30;;;;;;;33.33;30.05;;;;;;;27.19;100.00;100713.88;1622412;86;21105;-89
2021/07/12 06:21:58;;;;;;;33.90;30.70;;;;;;;27.30;100.00;100709.64;1633429;85;21069;-85
2021/07/12 06:24:25;;;;;;;34.25;30.55;;;;;;;27.40;100.00;100716.61;1610504;87;21014;-87
2021/07/12 06:26:52;;;;;;;33.75;30.25;;;;;;;27.52;100.00;100707.34;1612189;87;21196;-87
2021/07/12 06:29:21;;;;;;;32.17;28.47;;;;;;;27.65;100.00;100710.86;1635508;86;22074;-85
2021/07/12 06:31:50;;;;;;;33.85;30.50;;;;;;;27.75;100.00;100711.67;1647774;84;21066;-91
2021/07/12 06:34:17;;;;;;;31.93;28.87;;;;;;;27.86;100.00;100710.37;1622764;87;21561;-88
2021/07/12 06:36:44;;;;;;;31.90;28.92;;;;;;;27.96;100.00;100711.68;1684360;83;21109;-85
2021/07/12 06:39:12;;;;;;;30.88;27.67;;;;;;;28.07;100.00;100714.11;1642568;84;21052;-88
2021/07/12 06:41:40;;;;;;;32.95;29.65;;;;;;;28.17;100.00;100721.03;1621612;84;21210;-89
2021/07/12 06:44:08;;;;;;;29.67;26.55;;;;;;;28.29;100.00;100715.19;1607273;87;21149;-92
2021/07/12 06:46:37;;;;;;;32.98;28.40;;;;;;;28.43;100.00;100719.80;1605884;87;21521;-87
2021/07/12 06:49:04;;;;;;;30.35;27.45;;;;;;;28.55;100.00;100717.12;1613245;86;21686;-92
2021/07/12 06:51:32;;;;;;;30.55;27.42;;;;;;;28.67;100.00;100722.99;1599183;85;21411;-87
2021/07/12 06:54:00;;;;;;;28.20;25.75;;;;;;;28.78;100.00;100721.67;1620949;85;21128;-90
2021/07/12 06:56:28;;;;;;;29.15;26.40;;;;;;;28.92;100.00;100723.59;1648292;86;21138;-92
2021/07/12 06:58:55;;;;;;;27.02;24.60;;;;;;;29.03;100.00;100725.95;1607074;87;21086;-88
2021/07/12 07:01:23;;;;;;;27.37;24.57;;;;;;;29.15;100.00;100720.56;1599347;86;21142;-88
2021/07/12 07:03:50;;;;;;;28.35;25.80;;;;;;;29.27;100.00;100725.38;1617355;86;21101;-93
2021/07/12 07:06:17;;;;;;;29.18;26.52;;;;;;;29.37;100.00;100726.64;1626758;86;21881;-82
2021/07/12 07:08:46;;;;;;;28.12;25.50;;;;;;;29.45;100.00;100730.83;1673995;83;21085;-88
2021/07/12 07:11:13;;;;;;;28.27;25.62;;;;;;;29.51;100.00;100726.67;1660600;84;21153;-90
2021/07/12 07:13:43;;;;;;;26.68;24.37;;;;;;;29.59;100.00;100723.61;1662240;85;21147;-82
2021/07/12 07:16:12;;;;;;;25.62;23.18;;;;;;;29.67;100.00;100725.07;1663112;84;21650;-84
2021/07/12 07:18:40;;;;;;;27.77;25.17;;;;;;;29.78;100.00;100718.56;1687571;83;21523;-89
2021/07/12 07:21:08;;;;;;;26.00;23.22;;;;;;;29.87;100.00;100719.25;1616528;86;21552;-87
2021/07/12 07:23:36;;;;;;;26.25;23.70;;;;;;;29.98;100.00;100715.44;1674686;84;21022;-91
2021/07/12 07:26:03;;;;;;;26.25;23.65;;;;;;;30.08;100.00;100719.64;1640748;85;21002;-86
2021/07/12 07:28:30;;;;;;;26.95;24.40;;;;;;;30.16;100.00;100719.75;1627788;85;21049;-88
2021/07/12 07:30:58;;;;;;;28.05;25.25;;;;;;;30.22;100.00;100724.14;1602896;87;21191;-91
2021/07/12 07:33:26;;;;;;;26.52;23.90;;;;;;;30.30;100.00;100725.62;1610233;86;21107;-92
2021/07/12 07:35:53;;;;;;;24.72;22.35;;;;;;;30.34;100.00;100722.72;1606508;86;21127;-88
2021/07/12 07:38:20;;;;;;;24.90;22.70;;;;;;;30.40;100.00;100728.47;1654105;84;21606;-85
2021/07/12 07:40:47;;;;;;;25.32;22.93;;;;;;;30.46;100.00;100725.30;1657994;84;21093;-88
2021/07/12 07:43:14;;;;;;;24.45;22.20;;;;;;;30.56;100.00;100724.70;1629793;86;21186;-81
2021/07/12 07:45:42;;;;;;;23.20;20.80;;;;;;;30.63;100.00;100726.67;1649515;85;21063;-85
2021/07/12 07:48:09;;;;;;;23.22;21.00;;;;;;;30.64;100.00;100729.11;1651099;84;21141;-91
2021/07/12 07:50:39;;;;;;;21.42;19.15;;;;;;;30.66;100.00;100724.81;1663935;84;21059;-88
2021/07/12 07:53:07;;;;;;;22.13;20.23;;;;;;;30.64;100.00;100718.91;1649751;84;21159;-85
2021/07/12 07:55:34;;;;;;;22.07;20.08;;;;;;;30.62;100.00;100719.67;1590073;88;22259;-85
2021/07/12 07:58:01;;;;;;;20.50;18.57;;;;;;;30.70;100.00;100715.22;1612298;87;21117;-87
2021/07/12 08:00:29;;;;;;;20.90;19.00;;;;;;;30.80;100.00;100722.59;1577709;88;21143;-88
2021/07/12 08:02:56;;;;;;;20.65;18.85;;;;;;;30.90;100.00;100712.50;1632737;85;21704;-87
2021/07/12 08:05:23;;;;;;;20.45;18.30;;;;;;;31.01;100.00;100711.58;1668175;83;21517;-84
2021/07/12 08:07:51;;;;;;;21.30;18.17;;;;;;;31.12;100.00;100716.06;1645163;86;21154;-81
2021/07/12 08:10:19;;;;;;;18.98;17.02;;;;;;;31.23;100.00;100709.44;1636955;87;21113;-83
2021/07/12 08:12:48;;;;;;;18.80;17.27;;;;;;;31.33;100.00;100713.59;1615587;87;21060;-94
2021/07/12 08:15:17;;;;;;;20.48;18.52;;;;;;;31.46;100.00;100705.66;1648840;85;21098;-85
2021/07/12 08:17:47;;;;;;;20.40;18.48;;;;;;;31.61;100.00;100702.30;1632366;85;21070;-85
2021/07/12 08:20:16;;;;;;;20.25;18.20;;;;;;;31.73;100.00;100697.61;1607296;86;21141;-88
2021/07/12 08:22:45;;;;;;;20.10;17.92;;;;;;;31.88;100.00;100696.94;1605111;86;21102;-87
2021/07/12 08:25:13;;;;;;;19.42;17.50;;;;;;;32.01;100.00;100688.94;1680315;83;21093;-92
2021/07/12 08:27:41;;;;;;;19.75;17.42;;;;;;;32.13;100.00;100691.45;1607198;86;21622;-87
2021/07/12 08:30:11;;;;;;;18.20;16.57;;;;;;;32.19;100.00;100690.44;1643589;84;21136;-86
2021/07/12 08:32:40;;;;;;;18.67;16.73;;;;;;;32.28;100.00;100691.34;1614427;87;21206;-87
2021/07/12 08:35:08;;;;;;;17.92;16.40;;;;;;;32.32;94.94;100691.91;1616026;86;21124;-85
2021/07/12 08:37:36;;;;;;;18.25;16.55;;;;;;;32.38;88.67;100693.55;1614830;85;21643;-82
2021/07/12 08:40:09;;;;;;;16.80;15.38;;;;;;;32.41;91.21;100685.48;1633850;85;21079;-89
2021/07/12 08:42:37;;;;;;;17.57;15.88;;;;;;;32.45;92.53;100684.42;1655526;85;21568;-82
2021/07/12 08:45:06;;;;;;;18.27;16.45;;;;;;;32.47;88.62;100679.05;1623369;85;21190;-82
2021/07/12 08:47:33;;;;;;;18.00;16.50;;;;;;;32.52;91.03;100686.34;1661690;84;21302;-93
2021/07/12 08:50:05;;;;;;;18.35;16.65;;;;;;;32.59;90.85;100682.08;1684119;83;21949;-92
2021/07/12 08:52:32;;;;;;;18.75;16.40;;;;;;;32.60;90.73;100676.97;1661202;84;21211;-85
2021/07/12 08:54:59;;;;;;;18.12;16.32;;;;;;;32.50;91.55;100673.66;1684516;83;21671;-87
2021/07/12 08:57:26;;;;;;;17.73;16.12;;;;;;;32.34;92.71;100677.63;1629092;86;21951;-86
2021/07/12 08:59:57;;;;;;;17.85;16.07;;;;;;;32.18;93.58;100675.34;1619852;85;21137;-88
2021/07/12 09:02:24;;;;;;;17.53;15.97;;;;;;;32.08;95.30;100680.14;1650609;85;21080;-89
2021/07/12 09:04:54;;;;;;;19.02;15.25;;;;;;;32.13;98.63;100675.30;1654988;84;21098;-86
2021/07/12 09:07:25;;;;;;;17.43;15.77;;;;;;;32.18;98.51;100675.34;1642405;85;21100;-81
2021/07/12 09:10:14;;;;;;;17.25;15.70;;;;;;;32.30;100.00;100669.80;1586117;88;21097;-95
2021/07/12 09:12:51;;;;;;;17.10;15.55;;;;;;;32.24;94.58;100671.64;1620462;86;20966;-86
2021/07/12 09:15:22;;;;;;;16.05;14.75;;;;;;;32.06;96.46;100677.40;1603669;87;21002;-85
2021/07/12 09:17:53;;;;;;;15.55;14.23;;;;;;;31.82;98.89;100671.02;1622986;87;21129;-81
2021/07/12 09:20:30;;;;;;;15.50;14.03;;;;;;;31.61;96.99;100662.77;1632895;86;21078;-83
2021/07/12 09:22:59;;;;;;;13.53;12.45;;;;;;;31.53;93.02;100665.11;1607836;85;21587;-87
2021/07/12 09:25:31;;;;;;;13.48;12.37;;;;;;;31.60;92.54;100655.75;1629528;86;21042;-83
2021/07/12 09:27:58;;;;;;;14.07;12.58;;;;;;;31.82;94.62;100654.08;1622935;84;21060;-89
2021/07/12 09:30:32;;;;;;;38.90;28.15;;;;;;;32.05;76.05;100652.91;1637401;86;21053;-85
2021/07/12 09:32:59;;;;;;;23.62;16.60;;;;;;;32.25;83.43;100650.89;1628520;85;21181;-84
2021/07/12 09:35:27;;;;;;;20.50;16.45;;;;;;;32.46;88.04;100650.48;1614831;85;21768;-86
2021/07/12 09:38:00;;;;;;;14.63;13.25;;;;;;;32.68;91.13;100648.97;1655494;85;21088;-91
2021/07/12 09:40:29;;;;;;;15.48;14.07;;;;;;;32.88;87.55;100645.57;1628329;86;21068;-87
2021/07/12 09:42:57;;;;;;;15.88;14.58;;;;;;;33.03;82.00;100647.52;1640092;85;21103;-85
2021/07/12 09:45:28;;;;;;;15.58;14.23;;;;;;;33.19;84.79;100643.50;1645984;85;21077;-82
2021/07/12 09:47:54;;;;;;;16.03;14.47;;;;;;;33.34;97.20;100646.25;1637656;85;21548;-87
2021/07/12 09:50:25;;;;;;;15.75;14.45;;;;;;;33.52;96.71;100649.52;1658494;85;21009;-83
2021/07/12 09:53:06;;;;;;;15.15;13.93;;;;;;;33.68;87.44;100649.52;1643770;85;21058;-83
2021/07/12 09:55:41;;;;;;;15.53;13.60;;;;;;;33.74;83.79;100643.03;1625231;86;21048;-82
2021/07/12 09:58:20;;;;;;;14.40;13.10;;;;;;;33.76;80.65;100646.28;1609765;87;21185;-82
2021/07/12 10:00:54;;;;;;;14.53;13.38;;;;;;;33.70;81.96;100643.29;1617305;86;21943;-86
2021/07/12 10:03:23;;;;;;;13.00;11.80;;;;;;;33.55;75.79;100649.52;1669030;84;21650;-83
2021/07/12 10:05:52;;;;;;;12.78;11.35;;;;;;;33.20;71.95;100632.98;1628706;86;21216;-86
2021/07/12 10:08:19;;;;;;;14.95;13.40;;;;;;;33.20;71.95;100632.98;1663931;84;21046;-81
2021/07/12 10:10:48;;;;;;;14.53;13.20;;;;;;;33.12;78.44;100637.55;1633598;85;20995;-92
2021/07/12 10:13:16;;;;;;;14.90;13.25;;;;;;;33.09;89.33;100629.98;1630036;86;21074;-83
2021/07/12 10:15:43;;;;;;;15.23;13.80;;;;;;;33.23;83.27;100626.24;1622579;87;21110;-84
2021/07/12 10:18:12;;;;;;;14.73;13.22;;;;;;;33.37;77.57;100631.97;1610519;85;21626;-90
2021/07/12 10:20:41;;;;;;;13.48;12.37;;;;;;;33.50;81.88;100628.17;1622617;86;21035;-82
2021/07/12 10:23:10;;;;;;;13.55;12.45;;;;;;;33.65;81.16;100626.02;1630565;86;21132;-82
2021/07/12 10:25:43;;;;;;;11.80;10.63;;;;;;;33.78;71.12;100629.25;1598660;87;21188;-86
2021/07/12 10:28:10;;;;;;;15.68;13.03;;;;;;;33.93;79.63;100628.46;1655499;85;21117;-87
2021/07/12 10:30:44;;;;;;;14.58;12.28;;;;;;;34.04;62.80;100625.20;1630017;86;22114;-85
2021/07/12 10:33:15;;;;;;;13.10;11.75;;;;;;;33.99;60.37;100630.06;1655681;84;20990;-89
2021/07/12 10:35:54;;;;;;;12.50;11.48;;;;;;;33.83;59.78;100623.86;1596169;86;21090;-81
2021/07/12 10:38:38;;;;;;;14.27;11.67;;;;;;;33.76;61.72;100627.37;1645725;84;22057;-84
2021/07/12 10:41:17;;;;;;;12.70;11.60;;;;;;;33.89;77.30;100623.35;1662561;85;21097;-86
2021/07/12 10:56:44;;;;;;;15.83;11.88;;;;;;;34.68;67.03;100606.63;1856307;76;22479;-82
2021/07/12 10:59:25;;;;;;;11.55;10.65;;;;;;;34.66;64.01;100610.16;1813156;78;20955;-85
2021/07/12 11:01:54;;;;;;;11.85;10.80;;;;;;;34.63;66.11;100600.70;1783719;79;22032;-84
2021/07/12 11:04:45;;;;;;;13.13;11.93;;;;;;;34.66;61.50;100597.46;1784165;79;21524;-83
2021/07/12 11:07:15;;;;;;;14.50;11.48;;;;;;;34.68;61.84;100598.52;1761708;79;21010;-82
2021/07/12 11:09:56;;;;;;;12.43;11.22;;;;;;;34.70;67.59;100599.06;1781268;79;21482;-82
2021/07/12 11:12:40;;;;;;;12.60;11.33;;;;;;;34.76;67.02;100593.89;1779811;79;21034;-82
2021/07/12 11:15:16;;;;;;;15.63;12.68;;;;;;;34.92;62.46;100596.00;1787788;79;21025;-83
2021/07/12 11:18:05;;;;;;;19.40;12.33;;;;;;;34.97;66.14;100591.91;1781263;79;21611;-83
2021/07/12 11:20:55;;;;;;;13.48;12.28;;;;;;;34.91;54.60;100598.44;1761386;79;20983;-81
2021/07/12 11:23:45;;;;;;;13.28;12.18;;;;;;;34.90;63.24;100598.97;1758687;79;20956;-83
2021/07/12 11:26:34;;;;;;;13.50;12.03;;;;;;;35.03;63.67;100602.16;1723666;79;20947;-83
2021/07/12 11:29:19;;;;;;;13.28;11.97;;;;;;;35.03;50.88;100612.97;1783837;79;21112;-84
2021/07/12 11:31:56;;;;;;;15.88;12.60;;;;;;;34.91;51.53;100621.42;1780194;79;21004;-83
2021/07/12 11:34:32;;;;;;;13.08;11.78;;;;;;;34.85;50.82;100620.61;1760326;79;21148;-83
2021/07/12 11:37:02;;;;;;;13.70;12.28;;;;;;;34.77;51.83;100613.08;1772100;80;21029;-83
2021/07/12 11:39:32;;;;;;;;;;;;;;;34.70;54.33;100609.87;1768424;79;21133;-83
2021/07/12 11:42:26;;;;;;;12.93;11.73;;;;;;;34.59;56.15;100600.45;1763692;80;20461;-83
2021/07/12 11:44:58;;;;;;;12.55;11.22;;;;;;;34.57;62.23;100603.97;1761571;80;21089;-84
2021/07/12 11:47:39;;;;;;;22.58;11.35;;;;;;;34.44;55.70;100606.75;1761591;79;21049;-84
2021/07/12 11:50:15;;;;;;;;;;;;;;;34.24;58.98;100618.41;1782457;79;21019;-83
2021/07/12 11:52:48;;;;;;;11.48;10.40;;;;;;;34.06;56.26;100627.89;1728446;80;20472;-84
2021/07/12 11:55:22;;;;;;;14.80;11.22;;;;;;;34.04;54.13;100616.57;1722191;82;21160;-84
2021/07/12 11:57:56;;;;;;;20.23;11.45;;;;;;;34.00;49.00;100622.23;1687660;81;21094;-82
2021/07/12 12:00:32;;;;;;;11.97;10.98;;;;;;;33.80;47.33;100610.37;1724034;81;21130;-82
2021/07/12 12:03:17;;;;;;;14.35;11.10;;;;;;;33.58;46.02;100604.42;1720844;82;21012;-82
2021/07/12 12:05:46;;;;;;;14.38;11.40;;;;;;;33.37;50.00;100600.94;1708897;82;21036;-83
2021/07/12 12:08:18;;;;;;;11.83;10.63;;;;;;;33.29;53.15;100594.94;1709218;82;21898;-82
2021/07/12 12:10:47;;;;;;;12.90;11.28;;;;;;;33.27;52.23;100586.85;1710241;81;21075;-83
2021/07/12 12:13:20;;;;;;;11.97;10.93;;;;;;;33.36;52.03;100591.22;1696755;82;21078;-83
2021/07/12 12:15:52;;;;;;;15.20;10.35;;;;;;;33.36;52.03;100591.22;1729673;82;21066;-83
2021/07/12 12:18:26;;;;;;;12.75;10.82;;;;;;;33.60;57.55;100590.95;1729935;82;20984;-82
2021/07/12 12:20:58;;;;;;;16.07;10.75;;;;;;;33.60;57.55;100590.95;1708646;83;21155;-83
2021/07/12 12:23:30;;;;;;;13.65;10.90;;;;;;;33.70;50.80;100590.13;1709397;83;21431;-83
2021/07/12 12:26:22;;;;;;;11.88;10.72;;;;;;;33.77;56.45;100592.00;1716447;81;21034;-82
2021/07/12 12:28:56;;;;;;;11.40;10.20;;;;;;;33.79;49.73;100593.90;1753830;80;21035;-82
2021/07/12 12:31:28;;;;;;;10.72;9.65;;;;;;;33.75;52.01;100592.02;1733842;81;21019;-83
2021/07/12 12:34:10;;;;;;;17.37;10.70;;;;;;;33.70;54.61;100594.17;1710390;81;21065;-83
2021/07/12 12:36:42;;;;;;;15.00;10.95;;;;;;;33.70;59.11;100589.30;1755963;79;22283;-85
2021/07/12 12:39:19;;;;;;;36.03;11.68;;;;;;;33.63;54.38;100592.30;1812399;79;21597;-86
2021/07/12 12:41:57;;;;;;;14.30;11.45;;;;;;;33.50;53.14;100595.00;1755306;79;21018;-85
2021/07/12 12:44:36;;;;;;;13.20;11.83;;;;;;;33.17;64.39;100614.08;1783173;78;21100;-85
2021/07/12 12:49:18;;;;;;;13.35;12.13;;;;;;;32.82;66.70;100614.80;1812295;77;25641;-89
2021/07/12 12:51:53;;;;;;;12.20;11.03;;;;;;;32.05;80.36;100620.06;1779159;78;21205;-85
2021/07/12 12:54:34;;;;;;;13.72;10.53;;;;;;;31.06;80.60;100613.50;1761542;79;21138;-82
2021/07/12 12:57:05;;;;;;;12.40;11.15;;;;;;;30.22;94.22;100606.00;1761873;80;21645;-86
2021/07/12 12:59:41;;;;;;;12.05;10.98;;;;;;;29.39;100.00;100611.92;1696116;81;21038;-92
2021/07/12 13:02:20;;;;;;;11.45;10.30;;;;;;;28.90;100.00;100635.91;1717502;81;21126;-90
2021/07/12 13:04:54;;;;;;;12.85;11.43;;;;;;;28.51;100.00;100618.75;1718683;78;21061;-86
2021/07/12 13:07:25;;;;;;;12.33;10.93;;;;;;;28.22;100.00;100620.80;1683065;83;21788;-86
2021/07/12 13:10:10;;;;;;;14.47;11.45;;;;;;;28.01;100.00;100629.64;1704683;82;21633;-91
2021/07/12 13:12:47;;;;;;;44.55;39.90;;;;;;;27.79;100.00;100628.58;1672304;82;22064;-87
2021/07/12 13:15:17;;;;;;;89.13;81.10;;;;;;;27.51;100.00;100629.50;1675962;82;21051;-86
2021/07/12 13:17:50;;;;;;;27.48;24.80;;;;;;;27.27;100.00;100629.92;1750229;78;21111;-87
2021/07/12 13:20:24;;;;;;;58.10;51.70;;;;;;;27.09;100.00;100636.09;1734676;78;21064;-92
2021/07/12 13:23:01;;;;;;;18.85;17.10;;;;;;;26.93;100.00;100628.98;1750861;79;21077;-89
2021/07/12 13:25:33;;;;;;;20.23;15.25;;;;;;;26.86;100.00;100628.25;1674053;82;20971;-86
2021/07/12 13:28:06;;;;;;;26.10;18.12;;;;;;;26.82;100.00;100638.27;1723889;81;21122;-88
2021/07/12 13:30:47;;;;;;;15.10;13.20;;;;;;;26.79;100.00;100628.05;1691873;80;21524;-91
2021/07/12 13:33:16;;;;;;;14.18;12.70;;;;;;;26.80;100.00;100635.03;1751753;79;21148;-90
2021/07/12 13:35:45;;;;;;;14.00;12.50;;;;;;;26.83;100.00;100634.06;1765080;79;21125;-92
2021/07/12 13:38:16;;;;;;;13.93;12.63;;;;;;;26.90;100.00;100636.13;1757356;79;22139;-87
2021/07/12 13:40:44;;;;;;;13.63;12.30;;;;;;;26.97;100.00;100628.55;1665912;82;21561;-89
2021/07/12 13:43:12;;;;;;;12.90;11.70;;;;;;;26.98;100.00;100627.52;1758103;79;21017;-87
2021/07/12 13:45:43;;;;;;;14.00;12.30;;;;;;;26.90;100.00;100636.63;1738153;79;21080;-91
2021/07/12 13:48:11;;;;;;;13.60;12.37;;;;;;;26.79;100.00;100634.19;1736334;80;21076;-89
2021/07/12 13:50:39;;;;;;;13.60;12.30;;;;;;;26.75;100.00;100635.66;1702464;80;21023;-90
2021/07/12 13:53:07;;;;;;;13.93;12.63;;;;;;;26.73;100.00;100641.73;1723462;81;21113;-89
2021/07/12 13:55:36;;;;;;;15.68;12.82;;;;;;;26.78;100.00;100645.91;1744738;80;21068;-90
2021/07/12 13:58:05;;;;;;;12.75;11.68;;;;;;;26.86;100.00;100641.61;1765867;79;21149;-91
2021/07/12 14:00:35;;;;;;;14.03;12.43;;;;;;;26.92;100.00;100638.03;1743775;80;21061;-90
2021/07/12 14:03:04;;;;;;;13.15;11.85;;;;;;;27.00;100.00;100643.61;1755447;79;21207;-90
2021/07/12 14:05:34;;;;;;;14.23;12.80;;;;;;;27.13;100.00;100635.95;1751430;79;21743;-88
2021/07/12 14:08:02;;;;;;;13.15;11.88;;;;;;;27.26;100.00;100632.80;1726068;80;21080;-90
2021/07/12 14:10:30;;;;;;;14.38;12.70;;;;;;;27.44;100.00;100632.79;1780367;78;21102;-89
2021/07/12 14:12:58;;;;;;;15.85;13.80;;;;;;;27.66;100.00;100630.42;1783534;78;21134;-90
2021/07/12 14:15:27;;;;;;;14.78;13.35;;;;;;;27.88;100.00;100625.06;1782878;78;21511;-91
2021/07/12 14:17:56;;;;;;;14.87;13.07;;;;;;;28.14;100.00;100627.84;1782934;78;21578;-89
2021/07/12 14:20:24;;;;;;;17.15;13.68;;;;;;;28.41;100.00;100616.13;1744242;79;21065;-90
2021/07/12 14:22:52;;;;;;;14.68;13.30;;;;;;;28.60;100.00;100607.97;1763728;79;21150;-92
2021/07/12 14:25:19;;;;;;;15.15;13.48;;;;;;;28.73;100.00;100605.55;1740559;80;21128;-87
2021/07/12 14:27:47;;;;;;;13.70;12.55;;;;;;;28.89;100.00;100599.45;1731791;79;21044;-93
2021/07/12 14:30:16;;;;;;;16.95;12.82;;;;;;;29.05;100.00;100603.76;1748280;79;21029;-94
2021/07/12 14:32:43;;;;;;;13.75;12.45;;;;;;;29.15;100.00;100594.58;1727137;80;21117;-90
2021/07/12 14:35:11;;;;;;;14.93;13.35;;;;;;;29.28;100.00;100595.61;1775483;78;21507;-92
2021/07/12 14:37:38;;;;;;;15.68;13.53;;;;;;;29.41;100.00;100594.53;1757469;78;21068;-92
2021/07/12 14:40:08;;;;;;;14.18;12.93;;;;;;;29.52;100.00;100590.69;1789233;77;20960;-89
2021/07/12 14:42:35;;;;;;;13.88;12.53;;;;;;;29.64;100.00;100583.39;1779675;79;21166;-88
2021/07/12 14:45:04;;;;;;;14.07;12.68;;;;;;;29.69;100.00;100586.15;1754434;79;21148;-89
2021/07/12 14:47:31;;;;;;;13.88;12.43;;;;;;;29.65;100.00;100586.34;1773772;76;21307;-91
2021/07/12 14:50:00;;;;;;;14.15;12.75;;;;;;;29.61;100.00;100589.75;1799693;77;21000;-92
2021/07/12 14:52:27;;;;;;;13.30;12.20;;;;;;;29.62;100.00;100586.02;1772822;78;21553;-91
2021/07/12 14:54:54;;;;;;;14.25;12.63;;;;;;;29.65;100.00;100587.67;1725074;80;21240;-88
2021/07/12 14:57:22;;;;;;;14.85;13.55;;;;;;;29.68;100.00;100589.09;1713947;79;21054;-91
2021/07/12 14:59:51;;;;;;;17.10;13.20;;;;;;;29.68;100.00;100581.84;1745926;82;21924;-91
2021/07/12 15:02:18;;;;;;;13.90;12.70;;;;;;;29.66;100.00;100569.73;1738559;80;21056;-88
2021/07/12 15:04:45;;;;;;;14.18;12.98;;;;;;;29.67;100.00;100572.16;1709583;81;21474;-90
2021/07/12 15:07:12;;;;;;;14.28;12.78;;;;;;;29.70;100.00;100558.78;1733831;80;21088;-90
2021/07/12 15:09:40;;;;;;;13.30;11.93;;;;;;;29.74;100.00;100556.70;1740849;80;21017;-87
2021/07/12 15:12:10;;;;;;;13.70;12.10;;;;;;;29.76;100.00;100556.48;1742709;79;21070;-91
2021/07/12 15:14:37;;;;;;;13.45;12.25;;;;;;;29.77;100.00;100557.28;1761654;79;21026;-87
2021/07/12 15:17:06;;;;;;;12.73;11.43;;;;;;;29.76;100.00;100565.87;1731674;80;21130;-85
2021/07/12 15:19:34;;;;;;;13.25;12.03;;;;;;;29.75;100.00;100574.44;1746684;78;21297;-88
2021/07/12 15:22:04;;;;;;;12.25;11.22;;;;;;;29.72;100.00;100576.80;1784866;77;21605;-88
2021/07/12 15:24:31;;;;;;;13.78;12.37;;;;;;;29.67;100.00;100584.23;1786123;78;21897;-89
2021/07/12 15:26:58;;;;;;;14.15;12.75;;;;;;;29.63;100.00;100591.16;1747841;79;21139;-87
2021/07/12 15:29:26;;;;;;;17.00;12.78;;;;;;;29.60;100.00;100599.67;1743414;80;21072;-90
2021/07/12 15:31:53;;;;;;;16.52;14.60;;;;;;;29.57;100.00;100603.66;1760593;77;21100;-89
2021/07/12 15:34:20;;;;;;;16.32;13.30;;;;;;;29.53;100.00;100601.16;1775785;79;20999;-89
2021/07/12 15:36:48;;;;;;;13.93;12.53;;;;;;;29.49;100.00;100608.59;1785891;78;21866;-89
2021/07/12 15:39:15;;;;;;;13.72;12.40;;;;;;;29.40;100.00;100612.21;1708845;81;21066;-90
2021/07/12 15:41:43;;;;;;;13.13;11.90;;;;;;;29.26;100.00;100608.98;1728543;80;21088;-87
2021/07/12 15:44:10;;;;;;;13.68;12.58;;;;;;;29.09;100.00;100612.97;1770318;79;21038;-90
2021/07/12 15:46:37;;;;;;;14.43;12.07;;;;;;;28.90;100.00;100613.14;1768056;79;21098;-91
2021/07/12 15:49:07;;;;;;;14.40;12.90;;;;;;;28.69;100.00;100618.58;1754572;79;21784;-88
2021/07/12 15:51:34;;;;;;;13.93;12.55;;;;;;;28.49;100.00;100613.09;1758886;80;21136;-89
2021/07/12 15:54:04;;;;;;;12.25;11.15;;;;;;;28.34;100.00;100612.77;1782931;79;21090;-89
2021/07/12 15:56:37;;;;;;;13.55;12.45;;;;;;;28.17;100.00;100613.97;1772167;79;21112;-92
2021/07/12 15:59:07;;;;;;;15.03;12.25;;;;;;;28.01;100.00;100618.14;1745097;80;21128;-89
2021/07/12 16:01:36;;;;;;;14.78;13.35;;;;;;;27.80;100.00;100616.30;1778022;79;21057;-91
2021/07/12 16:04:05;;;;;;;15.15;13.62;;;;;;;27.63;100.00;100613.48;1759762;79;21639;-89
2021/07/12 16:06:32;;;;;;;15.70;14.03;;;;;;;27.51;100.00;100622.81;1762915;79;21125;-90
2021/07/12 16:14:26;;;;;;;16.85;15.15;;;;;;;27.29;100.00;100661.77;1613084;81;21519;-90
2021/07/12 16:16:56;;;;;;;20.37;15.50;;;;;;;27.19;100.00;100677.80;1756448;79;21537;-89
2021/07/12 16:19:29;;;;;;;19.40;16.20;;;;;;;27.06;100.00;100671.30;1752840;78;21605;-92
2021/07/12 16:22:22;;;;;;;16.87;15.18;;;;;;;26.76;100.00;100677.39;1724893;80;21121;-90
2021/07/12 16:24:38;;;;;;;19.30;16.50;;;;;;;26.50;100.00;100677.91;1742995;80;21070;-88
2021/07/12 16:27:08;;;;;;;17.82;15.93;;;;;;;26.32;100.00;100673.86;1756512;80;21058;-89
2021/07/12 16:29:41;;;;;;;19.17;16.40;;;;;;;26.16;100.00;100682.72;1754925;79;20985;-89
2021/07/12 16:32:14;;;;;;;20.92;16.60;;;;;;;26.04;100.00;100694.58;1779582;79;21061;-92
2021/07/12 16:34:42;;;;;;;28.12;19.17;;;;;;;25.82;100.00;100705.61;1681078;82;21465;-91
2021/07/12 16:37:14;;;;;;;33.05;18.35;;;;;;;25.55;100.00;100701.44;1729843;80;21497;-93